createdAt,value
2023-01-17T00:00:53.264Z,2.60
2023-01-17T00:03:20.922Z,2.70
2023-01-17T00:06:06.007Z,2.83
2023-01-17T00:08:54.816Z,3.83
2023-01-17T00:11:24.031Z,2.50
2023-01-17T00:13:55.991Z,3.33
2023-01-17T00:16:23.871Z,3.42
2023-01-17T00:19:05.396Z,3.65
2023-01-17T00:21:50.548Z,3.65
2023-01-17T00:24:37.094Z,3.23
2023-01-17T00:27:12.441Z,3.13
2023-01-17T00:29:38.997Z,3.17
2023-01-17T00:32:05.533Z,3.35
2023-01-17T00:34:32.053Z,2.53
2023-01-17T00:36:58.632Z,2.73
2023-01-17T00:39:26.459Z,2.42
2023-01-17T00:41:52.901Z,2.75
2023-01-17T00:44:38.197Z,2.22
2023-01-17T00:47:23.278Z,2.95
2023-01-17T00:50:08.249Z,3.10
2023-01-17T00:52:53.373Z,2.67
2023-01-17T00:55:40.299Z,2.70
2023-01-17T00:58:25.860Z,2.65
2023-01-17T01:01:12.317Z,3.63
2023-01-17T01:03:57.326Z,2.80
2023-01-17T01:06:42.921Z,2.45
2023-01-17T01:09:28.261Z,2.88
2023-01-17T01:12:14.662Z,2.88
2023-01-17T01:15:01.020Z,2.60
2023-01-17T01:17:46.122Z,2.93
2023-01-17T01:20:31.311Z,2.67
2023-01-17T01:23:16.984Z,2.90
2023-01-17T01:26:02.019Z,3.15
2023-01-17T01:28:48.911Z,2.83
2023-01-17T01:31:34.518Z,2.40
2023-01-17T01:34:02.568Z,2.40
2023-01-17T01:36:30.104Z,2.35
2023-01-17T01:38:57.840Z,2.60
2023-01-17T01:41:25.682Z,2.95
2023-01-17T01:43:55.662Z,2.27
2023-01-17T01:46:25.220Z,2.53
2023-01-17T01:48:55.006Z,2.50
2023-01-17T01:51:23.560Z,2.67
2023-01-17T01:53:52.930Z,2.65
2023-01-17T01:56:23.296Z,2.60
2023-01-17T01:58:52.162Z,2.78
2023-01-17T02:01:21.327Z,2.28
2023-01-17T02:03:50.092Z,3.05
2023-01-17T02:06:25.951Z,2.78
2023-01-17T02:08:54.850Z,2.93
2023-01-17T02:11:23.732Z,2.25
2023-01-17T02:13:51.252Z,2.63
2023-01-17T02:16:27.360Z,2.80
2023-01-17T02:19:00.746Z,2.70
2023-01-17T02:21:31.856Z,2.80
2023-01-17T02:24:14.289Z,3.38
2023-01-17T02:27:02.676Z,2.75
2023-01-17T02:29:51.137Z,3.28
2023-01-17T02:32:24.599Z,3.13
2023-01-17T02:34:58.123Z,2.90
2023-01-17T02:37:27.755Z,2.97
2023-01-17T02:39:58.801Z,3.42
2023-01-17T02:42:29.321Z,2.95
2023-01-17T02:44:56.830Z,2.90
2023-01-17T02:47:26.967Z,3.20
2023-01-17T02:49:55.824Z,3.13
2023-01-17T02:52:34.688Z,3.00
2023-01-17T02:55:12.149Z,2.58
2023-01-17T02:57:51.011Z,2.88
2023-01-17T03:00:22.723Z,2.93
2023-01-17T03:02:58.993Z,3.15
2023-01-17T03:05:30.561Z,2.70
2023-01-17T03:07:58.751Z,3.58
2023-01-17T03:10:26.365Z,2.70
2023-01-17T03:13:02.463Z,2.90
2023-01-17T03:15:30.043Z,3.50
2023-01-17T03:18:00.735Z,3.20
2023-01-17T03:20:28.747Z,3.10
2023-01-17T03:22:56.481Z,3.00
2023-01-17T03:25:24.074Z,3.00
2023-01-17T03:27:51.687Z,3.35
2023-01-17T03:30:21.785Z,2.70
2023-01-17T03:32:49.508Z,2.67
2023-01-17T03:35:18.690Z,2.90
2023-01-17T03:37:46.994Z,2.90
2023-01-17T03:40:14.714Z,3.38
2023-01-17T03:42:42.897Z,3.00
2023-01-17T03:45:10.826Z,2.78
2023-01-17T03:47:38.401Z,3.13
2023-01-17T03:50:06.323Z,2.53
2023-01-17T03:52:35.264Z,2.80
2023-01-17T03:55:03.392Z,3.05
2023-01-17T03:57:31.104Z,3.35
2023-01-17T03:59:58.587Z,2.65
2023-01-17T04:02:28.586Z,3.00
2023-01-17T04:04:56.309Z,2.25
2023-01-17T04:07:24.122Z,2.53
2023-01-17T04:09:54.574Z,2.75
2023-01-17T04:12:22.366Z,2.35
2023-01-17T04:14:54.948Z,2.73
2023-01-17T04:17:22.645Z,2.60
2023-01-17T04:19:50.232Z,2.83
2023-01-17T04:22:18.420Z,2.75
2023-01-17T04:24:46.634Z,2.70
2023-01-17T04:27:16.050Z,3.30
2023-01-17T04:29:45.924Z,2.83
2023-01-17T04:32:14.735Z,2.92
2023-01-17T04:34:42.456Z,2.92
2023-01-17T04:37:10.090Z,2.70
2023-01-17T04:39:37.625Z,2.87
2023-01-17T04:42:05.312Z,2.38
2023-01-17T04:44:34.232Z,3.10
2023-01-17T04:47:07.339Z,2.95
2023-01-17T04:49:35.010Z,2.65
2023-01-17T04:52:02.585Z,3.23
2023-01-17T04:54:30.666Z,2.40
2023-01-17T04:56:58.278Z,2.63
2023-01-17T04:59:25.802Z,2.30
2023-01-17T05:01:54.768Z,2.97
2023-01-17T05:04:22.465Z,2.90
2023-01-17T05:06:49.934Z,2.90
2023-01-17T05:09:17.587Z,3.17
2023-01-17T05:11:45.297Z,2.83
2023-01-17T05:14:12.923Z,2.40
2023-01-17T05:16:40.486Z,3.00
2023-01-17T05:19:09.484Z,2.83
2023-01-17T05:21:37.019Z,2.55
2023-01-17T05:24:04.742Z,3.10
2023-01-17T05:26:32.362Z,2.50
2023-01-17T05:28:59.899Z,2.70
2023-01-17T05:31:29.087Z,2.75
2023-01-17T05:33:57.455Z,2.90
2023-01-17T05:36:26.333Z,2.80
2023-01-17T05:38:54.031Z,2.53
2023-01-17T05:41:21.612Z,2.77
2023-01-17T05:43:49.242Z,2.72
2023-01-17T05:46:18.212Z,2.28
2023-01-17T05:48:45.919Z,2.70
2023-01-17T05:51:14.804Z,2.20
2023-01-17T05:53:44.717Z,2.00
2023-01-17T05:56:12.227Z,2.55
2023-01-17T05:58:40.225Z,2.13
2023-01-17T06:01:08.026Z,2.60
2023-01-17T06:03:35.905Z,2.40
2023-01-17T06:06:03.508Z,3.20
2023-01-17T06:08:31.615Z,3.15
2023-01-17T06:11:00.843Z,2.72
2023-01-17T06:13:28.920Z,2.63
2023-01-17T06:15:57.867Z,2.63
2023-01-17T06:18:25.425Z,3.00
2023-01-17T06:20:54.239Z,2.70
2023-01-17T06:23:22.739Z,2.70
2023-01-17T06:25:50.512Z,2.58
2023-01-17T06:28:20.519Z,2.70
2023-01-17T06:30:48.917Z,2.20
2023-01-17T06:33:16.532Z,2.90
2023-01-17T06:35:48.300Z,2.72
2023-01-17T06:38:16.478Z,2.67
2023-01-17T06:40:46.953Z,3.33
2023-01-17T06:43:14.503Z,3.23
2023-01-17T06:45:43.677Z,3.55
2023-01-17T06:48:11.229Z,3.65
2023-01-17T06:50:38.977Z,3.63
2023-01-17T06:53:07.550Z,3.95
2023-01-17T06:55:35.694Z,3.37
2023-01-17T06:58:03.563Z,3.15
2023-01-17T07:00:32.023Z,3.50
2023-01-17T07:03:03.933Z,3.63
2023-01-17T07:05:32.931Z,3.72
2023-01-17T07:08:00.515Z,3.63
2023-01-17T07:10:28.208Z,3.25
2023-01-17T07:12:58.982Z,3.40
2023-01-17T07:15:26.699Z,4.05
2023-01-17T07:17:54.208Z,4.10
2023-01-17T07:20:23.299Z,3.87
2023-01-17T07:22:50.852Z,4.00
2023-01-17T07:25:20.036Z,4.47
2023-01-17T07:27:48.013Z,5.03
2023-01-17T07:30:16.071Z,4.65
2023-01-17T07:32:43.693Z,4.37
2023-01-17T07:35:11.577Z,4.70
2023-01-17T07:37:40.781Z,4.50
2023-01-17T07:40:08.826Z,4.60
2023-01-17T07:42:36.706Z,4.68
2023-01-17T07:45:04.500Z,5.07
2023-01-17T07:47:33.987Z,5.47
2023-01-17T07:50:02.906Z,5.50
2023-01-17T07:52:31.296Z,5.32
2023-01-17T07:55:00.158Z,4.47
2023-01-17T07:57:27.880Z,6.20
2023-01-17T07:59:55.549Z,4.97
2023-01-17T08:02:24.630Z,4.80
2023-01-17T08:04:52.232Z,5.40
2023-01-17T08:07:19.915Z,5.72
2023-01-17T08:09:49.880Z,4.27
2023-01-17T08:12:19.013Z,4.95
2023-01-17T08:14:47.956Z,4.38
2023-01-17T08:17:22.201Z,4.70
2023-01-17T08:19:52.261Z,4.78
2023-01-17T08:22:20.625Z,5.30
2023-01-17T08:24:48.727Z,5.45
2023-01-17T08:27:16.324Z,5.90
2023-01-17T08:29:48.315Z,6.35
2023-01-17T08:32:16.069Z,6.10
2023-01-17T08:34:43.737Z,6.07
2023-01-17T08:37:11.303Z,5.60
2023-01-17T08:39:38.945Z,5.35
2023-01-17T08:42:06.706Z,5.40
2023-01-17T08:44:34.264Z,5.53
2023-01-17T08:47:03.449Z,5.93
2023-01-17T08:49:34.063Z,5.40
2023-01-17T08:52:01.669Z,5.43
2023-01-17T08:54:29.608Z,4.95
2023-01-17T08:56:57.526Z,6.32
2023-01-17T08:59:25.056Z,5.43
2023-01-17T09:01:52.817Z,5.32
2023-01-17T09:04:22.566Z,5.97
2023-01-17T09:06:50.173Z,5.60
2023-01-17T09:09:18.167Z,5.00
2023-01-17T09:11:45.860Z,4.93
2023-01-17T09:14:15.676Z,5.10
2023-01-17T09:16:43.304Z,5.20
2023-01-17T09:19:11.177Z,5.15
2023-01-17T09:21:42.442Z,5.07
2023-01-17T09:24:12.327Z,4.87
2023-01-17T09:26:41.007Z,5.35
2023-01-17T09:29:08.645Z,6.00
2023-01-17T09:31:36.566Z,6.05
2023-01-17T09:34:04.083Z,5.55
2023-01-17T09:36:33.837Z,5.70
2023-01-17T09:39:03.247Z,6.00
2023-01-17T09:41:32.182Z,5.70
2023-01-17T09:44:06.442Z,6.18
2023-01-17T09:46:38.065Z,5.72
2023-01-17T09:49:08.764Z,5.43
2023-01-17T09:51:37.234Z,5.50
2023-01-17T09:54:06.507Z,5.57
2023-01-17T09:56:41.391Z,4.70
2023-01-17T09:59:18.900Z,5.45
2023-01-17T10:01:49.335Z,5.67
2023-01-17T10:04:25.303Z,5.13
2023-01-17T10:06:59.368Z,5.35
2023-01-17T10:09:37.600Z,5.47
2023-01-17T10:12:17.827Z,6.05
2023-01-17T10:14:57.285Z,5.60
2023-01-17T10:17:31.381Z,5.40
2023-01-17T10:20:04.990Z,6.30
2023-01-17T10:22:54.544Z,5.97
2023-01-17T10:25:36.995Z,6.10
2023-01-17T10:28:11.685Z,5.97
2023-01-17T10:30:43.162Z,6.00
2023-01-17T10:33:15.324Z,7.13
2023-01-17T10:35:47.951Z,7.30
2023-01-17T10:38:16.225Z,6.90
2023-01-17T10:40:50.222Z,6.77
2023-01-17T10:43:21.380Z,7.32
2023-01-17T10:45:52.557Z,7.20
2023-01-17T10:48:25.470Z,6.07
2023-01-17T10:50:56.838Z,5.97
2023-01-17T10:53:32.842Z,6.17
2023-01-17T10:56:02.047Z,6.60
2023-01-17T10:58:33.003Z,6.22
2023-01-17T11:01:01.886Z,6.57
2023-01-17T11:03:31.091Z,5.85
2023-01-17T11:06:18.938Z,5.77
2023-01-17T11:08:51.677Z,4.82
2023-01-17T11:11:20.266Z,6.28
2023-01-17T11:13:50.737Z,5.70
2023-01-17T11:16:21.231Z,5.05
2023-01-17T11:18:50.616Z,6.20
2023-01-17T11:21:18.963Z,4.40
2023-01-17T11:23:47.937Z,3.90
2023-01-17T11:26:24.050Z,4.75
2023-01-17T11:31:38.266Z,5.30
2023-01-17T11:34:06.846Z,5.22
2023-01-17T11:36:35.026Z,5.15
2023-01-17T11:39:04.040Z,5.65
2023-01-17T11:41:34.255Z,6.40
2023-01-17T11:44:03.878Z,6.27
2023-01-17T11:46:32.334Z,5.38
2023-01-17T11:49:00.709Z,5.82
2023-01-17T11:51:29.710Z,5.45
2023-01-17T11:54:09.308Z,5.05
2023-01-17T11:56:37.669Z,5.07
2023-01-17T11:59:19.794Z,4.80
2023-01-17T12:01:53.320Z,4.28
2023-01-17T12:04:25.469Z,4.40
2023-01-17T12:07:03.185Z,4.20
2023-01-17T12:09:35.422Z,3.80
2023-01-17T12:12:25.078Z,3.28
2023-01-17T12:14:57.674Z,2.45
2023-01-17T12:17:37.260Z,2.45
2023-01-17T12:20:06.242Z,2.50
2023-01-17T12:22:59.555Z,2.20
2023-01-17T12:25:33.216Z,2.47
2023-01-17T12:28:11.427Z,2.30
2023-01-17T12:30:42.957Z,1.95
2023-01-17T12:33:19.958Z,2.47
2023-01-17T12:35:50.917Z,2.27
2023-01-17T12:38:32.058Z,1.98
2023-01-17T12:41:02.063Z,2.28
2023-01-17T12:43:32.247Z,1.90
2023-01-17T12:46:03.659Z,2.25
2023-01-17T12:48:33.761Z,1.60
2023-01-17T12:51:04.830Z,1.50
2023-01-17T12:53:33.673Z,1.70
2023-01-17T12:56:04.215Z,1.70
2023-01-17T12:58:36.834Z,1.88
2023-01-17T13:01:08.436Z,1.60
2023-01-17T13:03:42.588Z,2.08
2023-01-17T13:06:16.882Z,1.88
2023-01-17T13:08:46.835Z,2.13
2023-01-17T13:11:18.231Z,2.15
2023-01-17T13:13:47.366Z,1.90
2023-01-17T13:16:17.680Z,2.20
2023-01-17T13:18:46.447Z,2.40
2023-01-17T13:21:26.333Z,2.47
2023-01-17T13:24:06.689Z,2.65
2023-01-17T13:26:41.541Z,2.10
2023-01-17T13:29:13.056Z,2.60
2023-01-17T13:31:48.124Z,2.15
2023-01-17T13:34:22.818Z,2.22
2023-01-17T13:36:58.173Z,1.85
2023-01-17T13:39:47.056Z,2.40
2023-01-17T13:42:23.660Z,2.00
2023-01-17T13:44:51.453Z,1.80
2023-01-17T13:47:38.906Z,2.80
2023-01-17T13:50:29.157Z,2.70
2023-01-17T13:52:58.229Z,3.00
2023-01-17T13:55:44.527Z,2.65
2023-01-17T13:58:31.429Z,2.58
2023-01-17T14:00:59.193Z,2.58
2023-01-17T14:03:45.865Z,2.50
2023-01-17T14:06:29.040Z,2.60
2023-01-17T14:09:01.574Z,2.88
2023-01-17T14:11:29.651Z,2.20
2023-01-17T14:13:57.271Z,2.63
2023-01-17T14:16:27.129Z,2.95
2023-01-17T14:18:57.921Z,3.50
2023-01-17T14:21:26.465Z,3.22
2023-01-17T14:24:00.538Z,3.28
2023-01-17T14:26:33.082Z,3.13
2023-01-17T14:29:21.030Z,3.00
2023-01-17T14:31:51.036Z,3.00
2023-01-17T14:34:22.781Z,3.72
2023-01-17T14:36:50.356Z,3.13
2023-01-17T14:39:25.610Z,3.20
2023-01-17T14:41:53.302Z,2.83
2023-01-17T14:44:20.836Z,3.10
2023-01-17T14:46:49.881Z,3.72
2023-01-17T14:49:21.668Z,3.35
2023-01-17T14:52:05.871Z,2.92
2023-01-17T14:54:36.748Z,3.10
2023-01-17T14:57:22.712Z,1.50
2023-01-17T14:59:50.330Z,1.05
2023-01-17T15:02:19.022Z,0.70
2023-01-17T15:04:54.888Z,0.50
2023-01-17T15:07:23.911Z,0.30
2023-01-17T15:09:53.084Z,0.40
2023-01-17T15:12:21.524Z,0.30
2023-01-17T15:14:49.744Z,0.35
2023-01-17T15:17:18.993Z,0.45
2023-01-17T15:19:47.500Z,0.50
2023-01-17T15:22:15.642Z,0.30
2023-01-17T15:24:44.602Z,0.40
2023-01-17T15:27:15.234Z,0.20
2023-01-17T15:29:42.980Z,0.43
2023-01-17T15:32:17.053Z,0.88
2023-01-17T15:34:45.786Z,0.93
2023-01-17T15:37:23.748Z,0.80
2023-01-17T15:39:51.425Z,0.50
2023-01-17T15:42:23.828Z,0.73
2023-01-17T15:44:54.451Z,0.60
2023-01-17T15:47:30.540Z,0.80
2023-01-17T15:49:58.192Z,0.73
2023-01-17T16:01:26.729Z,1.77
2023-01-17T16:03:58.013Z,2.35
2023-01-17T16:06:38.297Z,2.30
2023-01-17T16:09:20.490Z,2.13
2023-01-17T16:11:51.249Z,2.85
2023-01-17T16:14:18.814Z,3.23
2023-01-17T16:16:54.509Z,3.03
2023-01-17T16:19:28.064Z,2.88
2023-01-17T16:21:57.307Z,2.63
2023-01-17T16:24:25.838Z,4.55
2023-01-17T16:26:53.785Z,5.47
2023-01-17T16:29:21.669Z,3.92
2023-01-17T16:31:49.392Z,4.47
2023-01-17T16:34:18.376Z,4.28
2023-01-17T16:36:46.325Z,4.38
2023-01-17T16:39:16.140Z,4.80
2023-01-17T16:41:43.713Z,4.35
2023-01-17T16:44:11.465Z,5.13
2023-01-17T16:46:44.797Z,4.80
2023-01-17T16:49:12.530Z,4.75
2023-01-17T16:51:41.861Z,4.87
2023-01-17T16:54:09.589Z,4.70
2023-01-17T16:56:37.500Z,5.35
2023-01-17T16:59:05.035Z,5.43
2023-01-17T17:01:32.824Z,5.78
2023-01-17T17:04:00.804Z,6.13
2023-01-17T17:06:28.659Z,6.68
2023-01-17T17:08:59.472Z,7.00
2023-01-17T17:11:27.224Z,6.20
2023-01-17T17:13:55.305Z,6.45
2023-01-17T17:16:26.476Z,7.00
2023-01-17T17:18:58.172Z,5.68
2023-01-17T17:21:25.831Z,5.72
2023-01-17T17:23:56.711Z,5.65
2023-01-17T17:26:26.810Z,5.50
2023-01-17T17:28:54.875Z,4.90
2023-01-17T17:31:22.706Z,5.72
2023-01-17T17:33:50.617Z,8.70
2023-01-17T17:36:20.515Z,12.10
2023-01-17T17:38:51.788Z,10.77
2023-01-17T17:41:20.770Z,11.13
2023-01-17T17:43:49.875Z,11.00
2023-01-17T17:46:17.684Z,11.90
2023-01-17T17:48:45.402Z,12.65
2023-01-17T17:51:22.467Z,6.72
2023-01-17T17:53:52.661Z,6.50
2023-01-17T17:56:20.420Z,6.63
2023-01-17T17:58:49.842Z,5.75
2023-01-17T18:01:17.532Z,4.60
2023-01-17T18:03:45.150Z,4.05
2023-01-17T18:06:13.499Z,5.50
2023-01-17T18:08:41.018Z,5.53
2023-01-17T18:11:11.236Z,5.63
2023-01-17T18:13:39.264Z,7.45
2023-01-17T18:16:09.467Z,7.13
2023-01-17T18:18:37.717Z,7.73
2023-01-17T18:21:06.558Z,7.65
2023-01-17T18:23:36.823Z,7.55
2023-01-17T18:26:04.618Z,8.02
2023-01-17T18:28:32.756Z,6.65
2023-01-17T18:31:05.500Z,6.57
2023-01-17T18:33:35.767Z,5.97
2023-01-17T18:36:04.807Z,7.20
2023-01-17T18:38:39.058Z,6.95
2023-01-17T18:41:07.518Z,6.38
2023-01-17T18:43:37.161Z,5.93
2023-01-17T18:46:05.674Z,6.72
2023-01-17T18:48:34.965Z,7.05
2023-01-17T18:51:03.446Z,7.05
2023-01-17T18:53:31.626Z,7.22
2023-01-17T18:56:00.328Z,8.50
2023-01-17T18:58:28.882Z,7.65
2023-01-17T19:00:56.767Z,7.95
2023-01-17T19:03:29.141Z,7.80
2023-01-17T19:06:01.542Z,7.55
2023-01-17T19:08:36.932Z,7.50
2023-01-17T19:11:04.893Z,7.55
2023-01-17T19:13:32.834Z,8.05
2023-01-17T19:16:00.923Z,7.57
2023-01-17T19:18:29.688Z,8.10
2023-01-17T19:21:03.707Z,8.37
2023-01-17T19:23:31.928Z,8.77
2023-01-17T19:25:59.629Z,6.65
2023-01-17T19:28:29.036Z,6.65
2023-01-17T19:31:03.548Z,7.72
2023-01-17T19:33:31.103Z,7.83
2023-01-17T19:36:05.923Z,6.72
2023-01-17T19:38:35.473Z,7.32
2023-01-17T19:41:09.088Z,6.95
2023-01-17T19:43:36.871Z,7.00
2023-01-17T19:46:04.872Z,6.03
2023-01-17T19:48:32.576Z,7.18
2023-01-17T19:51:05.770Z,7.32
2023-01-17T19:53:33.500Z,6.93
2023-01-17T19:56:01.300Z,7.20
2023-01-17T19:58:32.470Z,7.20
2023-01-17T20:01:06.222Z,6.88
2023-01-17T20:03:33.908Z,6.57
2023-01-17T20:06:01.492Z,6.53
2023-01-17T20:08:30.857Z,6.30
2023-01-17T20:11:01.630Z,6.97
2023-01-17T20:13:29.486Z,6.43
2023-01-17T20:15:59.303Z,6.72
2023-01-17T20:18:27.257Z,6.72
2023-01-17T20:21:02.677Z,6.70
2023-01-17T20:23:34.329Z,7.53
2023-01-17T20:26:04.742Z,6.50
2023-01-17T20:28:33.056Z,6.03
2023-01-17T20:31:05.994Z,6.72
2023-01-17T20:33:33.650Z,5.88
2023-01-17T20:36:10.022Z,6.07
2023-01-17T20:38:44.984Z,7.18
2023-01-17T20:41:14.139Z,6.82
2023-01-17T20:43:42.138Z,6.60
2023-01-17T20:46:11.855Z,6.50
2023-01-17T20:48:44.304Z,6.43
2023-01-17T20:51:12.372Z,6.40
2023-01-17T20:53:42.126Z,6.72
2023-01-17T20:56:10.251Z,6.35
2023-01-17T20:58:38.684Z,7.15
2023-01-17T21:01:06.843Z,6.80
2023-01-17T21:03:35.097Z,6.80
2023-01-17T21:06:03.200Z,6.85
2023-01-17T21:08:32.255Z,5.30
2023-01-17T21:11:03.162Z,4.78
2023-01-17T21:13:33.070Z,4.40
2023-01-17T21:16:00.672Z,4.15
2023-01-17T21:18:31.548Z,3.30
2023-01-17T21:21:03.086Z,3.22
2023-01-17T21:23:31.888Z,4.05
2023-01-17T21:25:59.520Z,3.83
2023-01-17T21:28:29.976Z,4.30
2023-01-17T21:30:58.011Z,3.40
2023-01-17T21:33:26.442Z,3.83
2023-01-17T21:35:54.202Z,3.47
2023-01-17T21:38:21.919Z,2.97
2023-01-17T21:40:49.487Z,2.70
2023-01-17T21:43:17.363Z,2.88
2023-01-17T21:45:46.486Z,2.50
2023-01-17T21:48:14.614Z,2.60
2023-01-17T21:50:42.363Z,2.17
2023-01-17T21:53:10.072Z,2.65
2023-01-17T21:55:55.158Z,2.63
2023-01-17T21:58:40.452Z,3.10
2023-01-17T22:01:18.011Z,2.85
2023-01-17T22:03:45.965Z,3.03
2023-01-17T22:06:13.543Z,3.15
2023-01-17T22:08:41.299Z,3.17
2023-01-17T22:11:10.799Z,3.40
2023-01-17T22:13:39.217Z,3.88
2023-01-17T22:16:09.520Z,3.77
2023-01-17T22:18:41.280Z,3.35
2023-01-17T22:21:09.860Z,3.50
2023-01-17T22:23:37.406Z,3.97
2023-01-17T22:26:06.367Z,3.67
2023-01-17T22:28:34.338Z,3.90
2023-01-17T22:31:08.815Z,3.70
2023-01-17T22:33:36.759Z,3.88
2023-01-17T22:36:06.256Z,3.97
2023-01-17T22:38:34.026Z,4.32
2023-01-17T22:41:06.938Z,3.27
2023-01-17T22:43:36.345Z,3.80
2023-01-17T22:46:04.257Z,3.45
2023-01-17T22:48:32.952Z,4.38
2023-01-17T22:51:02.251Z,4.07
2023-01-17T22:53:31.681Z,2.90
2023-01-17T22:56:00.510Z,3.58
2023-01-17T22:58:28.781Z,3.50
2023-01-17T23:00:58.379Z,3.80
2023-01-17T23:03:26.030Z,3.78
2023-01-17T23:05:53.575Z,3.47
2023-01-17T23:08:21.464Z,3.50
2023-01-17T23:11:08.484Z,3.72
2023-01-17T23:13:36.087Z,3.08
2023-01-17T23:16:22.878Z,3.13
2023-01-17T23:19:07.835Z,3.40
2023-01-17T23:21:50.425Z,3.30
2023-01-17T23:24:19.508Z,3.80
2023-01-17T23:27:09.233Z,3.08
2023-01-17T23:29:35.846Z,3.80
2023-01-17T23:32:03.426Z,4.10
2023-01-17T23:34:31.069Z,4.00
2023-01-17T23:36:58.730Z,4.70
2023-01-17T23:39:28.506Z,3.63
2023-01-17T23:42:15.138Z,4.50
2023-01-17T23:44:42.820Z,4.10
2023-01-17T23:47:11.537Z,4.47
2023-01-17T23:49:39.139Z,4.35
2023-01-17T23:52:06.982Z,3.53
2023-01-17T23:54:35.022Z,3.63
2023-01-17T23:57:04.101Z,4.10
2023-01-17T23:59:31.709Z,3.88
